Map

Track Data

SID SEASON NUMBER BASIN SUBBASIN NAME ISO_TIME NATURE LAT LON WMO_WIND WMO_PRES WMO_AGENCY TRACK_TYPE DIST2LAND LANDFALL IFLAG USA_AGENCY USA_ATCF_ID USA_LAT USA_LON USA_RECORD USA_STATUS USA_WIND USA_PRES USA_SSHS USA_R34_NE USA_R34_SE USA_R34_SW USA_R34_NW USA_R50_NE USA_R50_SE USA_R50_SW USA_R50_NW USA_R64_NE USA_R64_SE USA_R64_SW USA_R64_NW USA_POCI USA_ROCI USA_RMW USA_EYE TOKYO_LAT TOKYO_LON TOKYO_GRADE TOKYO_WIND TOKYO_PRES TOKYO_R50_DIR TOKYO_R50_LONG TOKYO_R50_SHORT TOKYO_R30_DIR TOKYO_R30_LONG TOKYO_R30_SHORT TOKYO_LAND CMA_LAT CMA_LON CMA_CAT CMA_WIND CMA_PRES HKO_LAT HKO_LON HKO_CAT HKO_WIND HKO_PRES NEWDELHI_LAT NEWDELHI_LON NEWDELHI_GRADE NEWDELHI_WIND NEWDELHI_PRES NEWDELHI_CI NEWDELHI_DP NEWDELHI_POCI REUNION_LAT REUNION_LON REUNION_TYPE REUNION_WIND REUNION_PRES REUNION_TNUM REUNION_CI REUNION_RMW REUNION_R34_NE REUNION_R34_SE REUNION_R34_SW REUNION_R34_NW REUNION_R50_NE REUNION_R50_SE REUNION_R50_SW REUNION_R50_NW REUNION_R64_NE REUNION_R64_SE REUNION_R64_SW REUNION_R64_NW BOM_LAT BOM_LON BOM_TYPE BOM_WIND BOM_PRES BOM_TNUM BOM_CI BOM_RMW BOM_R34_NE BOM_R34_SE BOM_R34_SW BOM_R34_NW BOM_R50_NE BOM_R50_SE BOM_R50_SW BOM_R50_NW BOM_R64_NE BOM_R64_SE BOM_R64_SW BOM_R64_NW BOM_ROCI BOM_POCI BOM_EYE BOM_POS_METHOD BOM_PRES_METHOD NADI_LAT NADI_LON NADI_CAT NADI_WIND NADI_PRES WELLINGTON_LAT WELLINGTON_LON WELLINGTON_WIND WELLINGTON_PRES DS824_LAT DS824_LON DS824_STAGE DS824_WIND DS824_PRES TD9636_LAT TD9636_LON TD9636_STAGE TD9636_WIND TD9636_PRES TD9635_LAT TD9635_LON TD9635_WIND TD9635_PRES TD9635_ROCI NEUMANN_LAT NEUMANN_LON NEUMANN_CLASS NEUMANN_WIND NEUMANN_PRES MLC_LAT MLC_LON MLC_CLASS MLC_WIND MLC_PRES USA_GUST BOM_GUST BOM_GUST_PER REUNION_GUST REUNION_GUST_PER USA_SEAHGT USA_SEARAD_NE USA_SEARAD_SE USA_SEARAD_SW USA_SEARAD_NW STORM_SPEED STORM_DIR
1997296N07176 1997 99 WP MM NOT_NAMED 1997-10-22 12:00:00 NR 6.50000 175.500 spur-merge 2334 2318 O_____________ jtwc_wp WP291997 6.50000 175.500 15 -1 3 266
1997296N07176 1997 99 WP MM NOT_NAMED 1997-10-22 15:00:00 NR 6.49002 175.337 spur-merge 2318 2311 P_____________ WP291997 6.49002 175.337 15 -1 3 270
1997296N07176 1997 99 WP MM NOT_NAMED 1997-10-22 18:00:00 NR 6.50000 175.200 spur-merge 2311 2303 O_____________ jtwc_wp WP291997 6.50000 175.200 15 -1 2 282
1997296N07176 1997 99 WP MM NOT_NAMED 1997-10-22 21:00:00 NR 6.54249 175.100 spur-merge 2303 2303 P_____________ WP291997 6.54249 175.100 15 -1 2 297
1997296N07176 1997 99 WP MM NOT_NAMED 1997-10-23 00:00:00 NR 6.60000 175.000 spur-merge 2304 2296 O_____________ jtwc_wp WP291997 6.60000 175.000 15 -1 3 294
1997296N07176 1997 99 WP MM NOT_NAMED 1997-10-23 03:00:00 NR 6.65001 174.850 spur-merge 2304 2289 P_____________ WP291997 6.65001 174.850 15 -1 3 289
1997296N07176 1997 99 WP MM NOT_NAMED 1997-10-23 06:00:00 NR 6.70000 174.700 spur-merge 2289 2282 O_____________ jtwc_wp WP291997 6.70000 174.700 15 -1 3 292
1997296N07176 1997 99 WP MM NOT_NAMED 1997-10-23 09:00:00 NR 6.74999 174.600 spur-merge 2282 2282 P_____________ WP291997 6.74999 174.600 15 -1 2 297
1997296N07176 1997 99 WP MM NOT_NAMED 1997-10-23 12:00:00 NR 6.80000 174.500 spur-merge 2283 2275 O_____________ jtwc_wp WP291997 6.80000 174.500 15 -1 3 292
1997296N07176 1997 99 WP MM NOT_NAMED 1997-10-23 15:00:00 NR 6.85001 174.350 spur-merge 2284 2269 P_____________ WP291997 6.85001 174.350 15 -1 3 289
1997296N07176 1997 99 WP MM NOT_NAMED 1997-10-23 18:00:00 NR 6.90000 174.200 spur-merge 2269 2262 O_____________ jtwc_wp WP291997 6.90000 174.200 15 -1 3 294
1997296N07176 1997 99 WP MM NOT_NAMED 1997-10-23 21:00:00 NR 6.95749 174.100 spur-merge 2270 2263 P_____________ WP291997 6.95749 174.100 15 -1 2 297
1997296N07176 1997 99 WP MM NOT_NAMED 1997-10-24 00:00:00 NR 7.00000 174.000 spur-merge 2263 2256 O_____________ jtwc_wp WP291997 7.00000 174.000 15 -1 3 280
1997296N07176 1997 99 WP MM NOT_NAMED 1997-10-24 03:00:00 NR 7.00001 173.850 spur-merge 2249 2242 P_____________ WP291997 7.00001 173.850 15 -1 3 270
1997296N07176 1997 99 WP MM NOT_NAMED 1997-10-24 06:00:00 NR 7.00000 173.700 spur-merge 2242 2234 O_____________ jtwc_wp WP291997 7.00000 173.700 15 -1 3 280
1997296N07176 1997 99 WP MM NOT_NAMED 1997-10-24 09:00:00 NR 7.04249 173.600 spur-merge 2234 2234 P_____________ WP291997 7.04249 173.600 17 -1 2 297
1997296N07176 1997 99 WP MM NOT_NAMED 1997-10-24 12:00:00 NR 7.10000 173.500 spur-merge 2236 2229 O_____________ jtwc_wp WP291997 7.10000 173.500 20 -1 3 294
1997296N07176 1997 99 WP MM NOT_NAMED 1997-10-24 15:00:00 NR 7.15001 173.350 spur-merge 2238 2224 P_____________ WP291997 7.15001 173.350 20 -1 3 289
1997296N07176 1997 99 WP MM NOT_NAMED 1997-10-24 18:00:00 NR 7.20000 173.200 spur-merge 2224 2217 O_____________ jtwc_wp WP291997 7.20000 173.200 20 -1 3 290
1997296N07176 1997 99 WP MM NOT_NAMED 1997-10-24 21:00:00 NR 7.24249 173.092 spur-merge 2217 2217 P_____________ WP291997 7.24249 173.092 20 -1 2 297
1997296N07176 1997 99 WP MM NOT_NAMED 1997-10-25 00:00:00 NR 7.30000 173.000 spur-merge 2219 2219 O_____________ jtwc_wp WP291997 7.30000 173.000 20 -1 2 310
1997296N07176 1997 99 WP MM NOT_NAMED 1997-10-25 03:00:00 NR 7.39999 172.908 spur-merge 2221 2221 P_____________ WP291997 7.39999 172.908 20 -1 3 315
1997296N07176 1997 99 WP MM NOT_NAMED 1997-10-25 06:00:00 NR 7.50000 172.800 spur-merge 2224 2217 O_____________ jtwc_wp WP291997 7.50000 172.800 20 -1 3 302
1997296N07176 1997 99 WP MM NOT_NAMED 1997-10-25 09:00:00 NR 7.55751 172.650 spur-merge 2226 2213 P_____________ WP291997 7.55751 172.650 20 -1 3 289
1997296N07176 1997 99 WP MM NOT_NAMED 1997-10-25 12:00:00 NR 7.60000 172.500 spur-merge 2213 2206 O_____________ jtwc_wp WP291997 7.60000 172.500 20 -1 3 291
1997296N07176 1997 99 WP MM NOT_NAMED 1997-10-25 15:00:00 NR 7.65749 172.393 spur-merge 2216 2209 P_____________ WP291997 7.65749 172.393 20 -1 2 297
1997296N07176 1997 99 WP MM NOT_NAMED 1997-10-25 18:00:00 NR 7.70000 172.300 spur-merge 2209 2203 O_____________ jtwc_wp WP291997 7.70000 172.300 20 -1 2 285
1997296N07176 1997 99 WP MM NOT_NAMED 1997-10-25 21:00:00 NR 7.70749 172.208 spur-merge 2203 2196 P_____________ WP291997 7.70749 172.208 20 -1 2 270
1997296N07176 1997 99 WP MM NOT_NAMED 1997-10-26 00:00:00 NR 7.70000 172.100 spur-merge 2196 2190 O_____________ jtwc_wp WP291997 7.70000 172.100 20 -1 2 270
1997296N07176 1997 99 WP MM NOT_NAMED 1997-10-26 03:00:00 NR 7.70749 171.965 spur-merge 2190 2178 P_____________ WP291997 7.70749 171.965 20 -1 3 270
1997296N07176 1997 99 WP MM NOT_NAMED 1997-10-26 06:00:00 NR 7.70000 171.800 spur-merge 2178 2165 O_____________ jtwc_wp WP291997 7.70000 171.800 20 -1 3 265
1997296N07176 1997 99 WP MM NOT_NAMED 1997-10-26 09:00:00 NR 7.67998 171.623 spur-merge 2165 2144 P_____________ WP291997 7.67998 171.623 20 -1 4 256
1997296N07176 1997 99 WP MM NOT_NAMED 1997-10-26 12:00:00 NR 7.60000 171.400 spur-merge 2144 2107 O_____________ jtwc_wp WP291997 7.60000 171.400 20 -1 6 243
1997296N07176 1997 99 WP MM NOT_NAMED 1997-10-26 15:00:00 NR 7.42251 171.115 spur-merge 2107 2070 P_____________ WP291997 7.42251 171.115 22 -1 7 236
1997296N07176 1997 99 WP MM NOT_NAMED 1997-10-26 18:00:00 NR 7.20000 170.800 spur-merge 2070 2033 O_____________ jtwc_wp WP291997 7.20000 170.800 25 -1 8 236
1997296N07176 1997 99 WP MM NOT_NAMED 1997-10-26 21:00:00 NR 6.99999 170.493 spur-merge 2033 1997 P_____________ WP291997 6.99999 170.493 25 -1 7 236
1997296N07176 1997 99 WP MM NOT_NAMED 1997-10-27 00:00:00 NR 6.80000 170.200 spur-merge 1997 1960 O_____________ jtwc_wp WP291997 6.80000 170.200 25 -1 7 234
1997296N07176 1997 99 WP MM NOT_NAMED 1997-10-27 03:00:00 NR 6.59999 169.935 spur-merge 1960 1930 P_____________ WP291997 6.59999 169.935 25 -1 6 231
1997296N07176 1997 99 WP MM NOT_NAMED 1997-10-27 06:00:00 NR 6.40000 169.700 spur-merge 1930 1899 O_____________ jtwc_wp WP291997 6.40000 169.700 25 -1 6 227
1997296N07176 1997 99 WP MM NOT_NAMED 1997-10-27 09:00:00 NR 6.17750 169.477 spur-merge 1899 1869 P_____________ WP291997 6.17750 169.477 27 -1 6 225
1997296N07176 1997 99 WP MM NOT_NAMED 1997-10-27 12:00:00 NR 6.00000 169.300 spur-merge 1869 1853 O_____________ jtwc_wp WP291997 6.00000 169.300 30 -1 4 228
1997296N07176 1997 99 WP MM NOT_NAMED 1997-10-27 15:00:00 NR 5.91998 169.193 spur-merge 1853 1848 P_____________ WP291997 5.91998 169.193 30 -1 2 243
1997296N07176 1997 99 WP MM NOT_NAMED 1997-10-27 18:00:00 NR 5.90000 169.100 spur-merge 1848 1842 O_____________ jtwc_wp WP291997 5.90000 169.100 30 -1 2 261
1997296N07176 1997 99 WP MM NOT_NAMED 1997-10-27 21:00:00 NR 5.88499 168.965 spur-merge 1842 1831 P_____________ WP291997 5.88499 168.965 32 -1 3 270
1997296N07176 1997 99 WP MM NOT_NAMED 1997-10-28 00:00:00 NR 5.90000 168.800 spur-merge 1831 1821 O_____________ jtwc_wp WP291997 5.90000 168.800 35 0 4 278
1997296N07176 1997 99 WP MM NOT_NAMED 1997-10-28 03:00:00 NR 5.93499 168.615 spur-merge 1821 1820 P_____________ WP291997 5.93499 168.615 35 0 4 284
1997296N07176 1997 99 WP MM NOT_NAMED 1997-10-28 06:00:00 NR 6.00000 168.400 spur-merge 1820 1815 O_____________ jtwc_wp WP291997 6.00000 168.400 35 0 5 290
1997296N07176 1997 99 WP MM NOT_NAMED 1997-10-28 09:00:00 NR 6.09246 168.180 spur-merge 1820 1815 P_____________ WP291997 6.09246 168.180 35 0 5 292
1997296N07176 1997 99 WP MM NOT_NAMED 1997-10-28 12:00:00 NR 6.20000 167.900 spur-merge 1815 1811 O_____________ jtwc_wp WP291997 6.20000 167.900 35 0 7 289
1997296N07176 1997 99 WP MM NOT_NAMED 1997-10-28 15:00:00 NR 6.30748 167.538 spur-merge 1807 1799 P_____________ WP291997 6.30748 167.538 35 0 8 284
1997296N07176 1997 99 WP MM NOT_NAMED 1997-10-28 18:00:00 NR 6.40000 167.100 spur-merge 1799 1783 O_____________ jtwc_wp WP291997 6.40000 167.100 35 0 9 279
1997296N07176 1997 99 WP MM NOT_NAMED 1997-10-28 21:00:00 NR 6.45749 166.615 spur-merge 1789 1770 P_____________ WP291997 6.45749 166.615 37 0 10 276
1997296N07176 1997 99 WP MM NOT_NAMED 1997-10-29 00:00:00 NR 6.50000 166.100 spur-merge 1770 1752 O_____________ jtwc_wp WP291997 6.50000 166.100 40 0 10 275
1997296N07176 1997 99 WP MM NOT_NAMED 1997-10-29 03:00:00 NR 6.54245 165.600 spur-merge 1752 1742 P_____________ WP291997 6.54245 165.600 42 0 10 276
1997296N07176 1997 99 WP MM NOT_NAMED 1997-10-29 06:00:00 NR 6.60000 165.100 spur-merge 1742 1729 O_____________ jtwc_wp WP291997 6.60000 165.100 45 0 10 278
1997296N07176 1997 99 WP MM NOT_NAMED 1997-10-29 09:00:00 NR 6.67745 164.600 spur-merge 1731 1711 P_____________ WP291997 6.67745 164.600 45 0 10 281
1997296N07176 1997 99 WP MM NOT_NAMED 1997-10-29 12:00:00 NR 6.80000 164.100 spur-merge 1711 1695 O_____________ jtwc_wp WP291997 6.80000 164.100 45 0 10 287
1997296N07176 1997 99 WP MM NOT_NAMED 1997-10-29 15:00:00 NR 6.98492 163.607 spur-merge 1698 1683 P_____________ WP291997 6.98492 163.607 47 0 11 292
1997296N07176 1997 99 WP MM NOT_NAMED 1997-10-29 18:00:00 NR 7.20000 163.100 spur-merge 1687 1668 O_____________ jtwc_wp WP291997 7.20000 163.100 50 0 11 292
1997296N07176 1997 99 WP MM NOT_NAMED 1997-10-29 21:00:00 NR 7.40743 162.565 spur-merge 1669 1644 P_____________ WP291997 7.40516 162.560 52 0 12 290
1997296N07176 1997 99 WP MM NOT_NAMED 1997-10-30 00:00:00 NR 7.60000 162.000 spur-merge 1644 O_____________ jtwc_wp WP291997 7.60000 162.000 55 0 12 289

Digital Typhoon Data and Search

About IBTrACS Database

This database is a web-friendly format of International Best Track Archive for Climate Stewardship (IBTrACS), a global best track data archive curated by NOAA dating back to 1842.

Updated: 2021-10-21